GIA566 WIOO-WBKK
Flight info
| Callsign | GIA566 |
|---|---|
| Flight time | N/A |
| Altitude | 36000 |
| Route | PNK R455 VKG G580 BRU ELADO ELAD2C |
| Aircraft | B738/L-V/N |
Departure
| Time | 2026-04-21 07:19 |
|---|---|
| Airport | Supadio International Airport (WIOO) |
Arrival
| Time | N/A |
|---|---|
| Airport | Kota Kinabalu International Airport (WBKK) |
| Time | Latitude | Longitude | Altitude | Speed | Heading |
|---|---|---|---|---|---|
| 2026-04-21 07:05 | -0.14780 | 109.40408 | 11 ft | 0 kts | 70° |
| 2026-04-21 07:12 | -0.14784 | 109.40396 | 11 ft | 2 kts | 64° |
| 2026-04-21 07:12 | -0.14786 | 109.40383 | 11 ft | 2 kts | 116° |
| 2026-04-21 07:13 | -0.14778 | 109.40374 | 11 ft | 0 kts | 154° |
| 2026-04-21 07:13 | -0.14772 | 109.40372 | 11 ft | 1 kts | 158° |
| 2026-04-21 07:13 | -0.14771 | 109.40372 | 11 ft | 0 kts | 158° |
| 2026-04-21 07:15 | -0.14774 | 109.40373 | 11 ft | 2 kts | 158° |
| 2026-04-21 07:16 | -0.14811 | 109.40384 | 11 ft | 8 kts | 179° |
| 2026-04-21 07:16 | -0.14863 | 109.40336 | 11 ft | 13 kts | 223° |
| 2026-04-21 07:16 | -0.14969 | 109.40347 | 11 ft | 18 kts | 158° |
| 2026-04-21 07:16 | -0.15102 | 109.40401 | 11 ft | 24 kts | 158° |
| 2026-04-21 07:17 | -0.15280 | 109.40469 | 8 ft | 30 kts | 157° |
| 2026-04-21 07:17 | -0.15492 | 109.40558 | 8 ft | 35 kts | 157° |
| 2026-04-21 07:17 | -0.15710 | 109.40645 | 8 ft | 31 kts | 159° |
| 2026-04-21 07:17 | -0.15896 | 109.40726 | 8 ft | 24 kts | 151° |
| 2026-04-21 07:18 | -0.15992 | 109.40797 | 8 ft | 11 kts | 194° |
| 2026-04-21 07:18 | -0.15985 | 109.40756 | 8 ft | 5 kts | 349° |
| 2026-04-21 07:18 | -0.15960 | 109.40750 | 8 ft | 0 kts | 338° |
| 2026-04-21 07:18 | -0.15959 | 109.40750 | 8 ft | 2 kts | 338° |
| 2026-04-21 07:19 | -0.15715 | 109.40649 | 8 ft | 78 kts | 337° |
| 2026-04-21 07:19 | -0.14973 | 109.40348 | 12 ft | 151 kts | 337° |
| 2026-04-21 07:19 | -0.13927 | 109.39906 | 452 ft | 177 kts | 335° |
| 2026-04-21 07:19 | -0.12771 | 109.39415 | 1276 ft | 185 kts | 337° |
| 2026-04-21 07:20 | -0.11479 | 109.39233 | 2003 ft | 196 kts | 9° |
| 2026-04-21 07:20 | -0.10164 | 109.39713 | 2528 ft | 213 kts | 23° |
| 2026-04-21 07:20 | -0.08755 | 109.40311 | 3095 ft | 229 kts | 20° |
| 2026-04-21 07:20 | -0.07235 | 109.40857 | 3689 ft | 243 kts | 18° |
| 2026-04-21 07:21 | -0.05608 | 109.41389 | 4458 ft | 251 kts | 18° |
| 2026-04-21 07:21 | -0.03895 | 109.41945 | 5124 ft | 265 kts | 18° |
| 2026-04-21 07:21 | -0.02271 | 109.42477 | 5774 ft | 274 kts | 18° |
| 2026-04-21 07:21 | -0.00619 | 109.43021 | 6606 ft | 276 kts | 18° |
| 2026-04-21 07:22 | 0.02962 | 109.44202 | 8201 ft | 284 kts | 18° |
| 2026-04-21 07:22 | 0.04891 | 109.44838 | 9030 ft | 288 kts | 19° |
| 2026-04-21 07:22 | 0.06525 | 109.45377 | 9690 ft | 292 kts | 19° |
| 2026-04-21 07:23 | 0.08457 | 109.46013 | 10395 ft | 298 kts | 19° |
| 2026-04-21 07:23 | 0.10473 | 109.46677 | 10885 ft | 312 kts | 19° |
| 2026-04-21 07:23 | 0.12580 | 109.47432 | 11298 ft | 328 kts | 23° |
| 2026-04-21 07:23 | 0.14631 | 109.48376 | 11710 ft | 342 kts | 27° |
| 2026-04-21 07:24 | 0.16787 | 109.49477 | 12090 ft | 357 kts | 28° |
| 2026-04-21 07:24 | 0.19043 | 109.50664 | 12442 ft | 372 kts | 28° |
| 2026-04-21 07:24 | 0.21105 | 109.51747 | 12942 ft | 378 kts | 28° |
| 2026-04-21 07:24 | 0.23546 | 109.53018 | 13645 ft | 382 kts | 28° |
| 2026-04-21 07:25 | 0.25864 | 109.54216 | 14306 ft | 384 kts | 28° |
| 2026-04-21 07:25 | 0.28099 | 109.55365 | 14905 ft | 387 kts | 28° |
| 2026-04-21 07:25 | 0.30398 | 109.56544 | 15497 ft | 390 kts | 28° |
| 2026-04-21 07:25 | 0.32601 | 109.57672 | 16038 ft | 394 kts | 28° |
| 2026-04-21 07:26 | 0.35064 | 109.58932 | 16595 ft | 398 kts | 28° |
| 2026-04-21 07:26 | 0.37756 | 109.60331 | 17231 ft | 401 kts | 29° |
| 2026-04-21 07:26 | 0.40189 | 109.61687 | 17765 ft | 405 kts | 31° |
| 2026-04-21 07:26 | 0.42657 | 109.63126 | 18269 ft | 409 kts | 31° |
| 2026-04-21 07:27 | 0.45114 | 109.64578 | 18803 ft | 412 kts | 31° |
| 2026-04-21 07:27 | 0.47589 | 109.66039 | 19320 ft | 416 kts | 31° |
| 2026-04-21 07:27 | 0.50075 | 109.67499 | 19811 ft | 419 kts | 31° |
| 2026-04-21 07:27 | 0.52623 | 109.68986 | 20291 ft | 423 kts | 31° |
| 2026-04-21 07:28 | 0.55192 | 109.70480 | 20750 ft | 426 kts | 30° |
| 2026-04-21 07:28 | 0.57783 | 109.71983 | 21177 ft | 431 kts | 30° |
| 2026-04-21 07:28 | 0.60349 | 109.73469 | 21620 ft | 434 kts | 30° |
| 2026-04-21 07:28 | 0.62801 | 109.74889 | 22059 ft | 436 kts | 30° |
| 2026-04-21 07:29 | 0.65036 | 109.76183 | 22405 ft | 439 kts | 30° |
| 2026-04-21 07:29 | 0.66610 | 109.77110 | 22673 ft | 441 kts | 32° |
| 2026-04-21 07:29 | 0.69659 | 109.79079 | 23230 ft | 443 kts | 34° |